createdAt,value
2022-08-23T00:02:29.554Z,83.06
2022-08-23T00:05:09.104Z,83.12
2022-08-23T00:07:42.831Z,83.31
2022-08-23T00:10:15.752Z,83.34
2022-08-23T00:12:47.412Z,83.38
2022-08-23T00:15:20.892Z,83.40
2022-08-23T00:17:50.717Z,83.43
2022-08-23T00:20:20.837Z,83.42
2022-08-23T00:22:52.283Z,83.45
2022-08-23T00:25:22.092Z,83.49
2022-08-23T00:27:52.079Z,83.52
2022-08-23T00:30:21.774Z,83.56
2022-08-23T00:32:53.468Z,83.59
2022-08-23T00:35:26.196Z,83.62
2022-08-23T00:38:30.412Z,83.64
2022-08-23T00:40:53.629Z,83.69
2022-08-23T00:43:57.874Z,83.69
2022-08-23T00:47:04.501Z,83.86
2022-08-23T00:49:38.971Z,83.84
2022-08-23T00:52:12.377Z,83.78
2022-08-23T00:54:45.676Z,83.74
2022-08-23T00:57:19.397Z,83.71
2022-08-23T00:59:48.874Z,83.69
2022-08-23T01:02:19.035Z,83.71
2022-08-23T01:04:55.853Z,83.76
2022-08-23T01:07:36.419Z,83.85
2022-08-23T01:10:20.953Z,83.95
2022-08-23T01:13:01.623Z,84.04
2022-08-23T01:15:42.177Z,84.08
2022-08-23T01:18:14.501Z,84.13
2022-08-23T01:21:17.037Z,84.13
2022-08-23T01:23:53.634Z,84.23
2022-08-23T01:26:25.099Z,84.24
2022-08-23T01:28:55.355Z,84.21
2022-08-23T01:31:25.808Z,84.20
2022-08-23T01:34:05.992Z,84.20
2022-08-23T01:36:37.720Z,84.22
2022-08-23T01:39:08.313Z,84.25
2022-08-23T01:41:38.902Z,84.20
2022-08-23T01:44:09.225Z,84.18
2022-08-23T01:46:38.945Z,84.17
2022-08-23T01:49:08.493Z,84.21
2022-08-23T01:51:38.800Z,84.19
2022-08-23T01:54:08.348Z,84.19
2022-08-23T01:56:39.802Z,84.26
2022-08-23T01:59:10.367Z,84.35
2022-08-23T02:01:39.056Z,84.40
2022-08-23T02:04:10.398Z,84.55
2022-08-23T02:06:42.014Z,84.56
2022-08-23T02:09:17.257Z,84.55
2022-08-23T02:11:50.137Z,84.67
2022-08-23T02:14:21.538Z,84.69
2022-08-23T02:17:03.420Z,84.74
2022-08-23T02:19:36.972Z,84.82
2022-08-23T02:22:08.568Z,84.84
2022-08-23T02:24:43.029Z,84.85
2022-08-23T02:27:17.147Z,84.85
2022-08-23T02:29:49.771Z,84.87
2022-08-23T02:32:23.271Z,84.87
2022-08-23T02:35:04.870Z,84.89
2022-08-23T02:37:37.407Z,84.95
2022-08-23T02:40:08.371Z,84.99
2022-08-23T02:42:36.162Z,84.97
2022-08-23T02:45:05.820Z,84.94
2022-08-23T02:47:33.556Z,84.94
2022-08-23T02:50:01.307Z,84.88
2022-08-23T02:52:32.257Z,84.89
2022-08-23T02:55:00.899Z,84.92
2022-08-23T02:57:31.701Z,84.95
2022-08-23T03:00:01.320Z,85.05
2022-08-23T03:02:31.801Z,85.06
2022-08-23T03:05:03.087Z,85.11
2022-08-23T03:07:32.727Z,85.17
2022-08-23T03:10:05.944Z,85.24
2022-08-23T03:12:35.698Z,85.32
2022-08-23T03:15:06.517Z,85.39
2022-08-23T03:17:37.267Z,85.46
2022-08-23T03:20:07.831Z,85.52
2022-08-23T03:22:37.895Z,85.56
2022-08-23T03:25:08.367Z,85.60
2022-08-23T03:27:44.780Z,85.62
2022-08-23T03:30:19.695Z,85.66
2022-08-23T03:32:49.558Z,85.68
2022-08-23T03:35:19.796Z,85.73
2022-08-23T03:37:47.735Z,85.74
2022-08-23T03:40:15.593Z,85.77
2022-08-23T03:42:45.392Z,85.81
2022-08-23T03:45:13.344Z,85.83
2022-08-23T03:47:41.517Z,85.83
2022-08-23T03:50:09.740Z,85.85
2022-08-23T03:52:41.245Z,85.87
2022-08-23T03:55:09.282Z,85.90
2022-08-23T03:57:38.757Z,85.93
2022-08-23T04:00:11.135Z,85.92
2022-08-23T04:02:38.906Z,85.92
2022-08-23T04:05:12.698Z,85.93
2022-08-23T04:07:42.241Z,85.76
2022-08-23T04:10:16.624Z,85.77
2022-08-23T04:12:44.730Z,85.79
2022-08-23T04:15:14.737Z,85.80
2022-08-23T04:17:44.215Z,85.76
2022-08-23T04:20:13.105Z,85.76
2022-08-23T04:22:41.073Z,85.78
2022-08-23T04:25:32.366Z,85.76
2022-08-23T04:28:02.928Z,85.79
2022-08-23T04:30:33.559Z,85.78
2022-08-23T04:33:01.883Z,85.79
2022-08-23T04:35:32.593Z,85.82
2022-08-23T04:38:02.304Z,85.84
2022-08-23T04:40:49.995Z,85.87
2022-08-23T04:43:19.644Z,85.92
2022-08-23T04:45:49.083Z,85.94
2022-08-23T04:48:20.432Z,85.96
2022-08-23T04:50:48.173Z,85.98
2022-08-23T04:53:18.089Z,85.99
2022-08-23T04:55:46.003Z,85.99
2022-08-23T04:58:14.996Z,86.04
2022-08-23T05:00:47.169Z,85.89
2022-08-23T05:03:20.341Z,85.78
2022-08-23T05:05:49.993Z,85.78
2022-08-23T05:08:20.008Z,85.75
2022-08-23T05:10:47.796Z,85.71
2022-08-23T05:13:15.512Z,85.74
2022-08-23T05:15:47.066Z,85.54
2022-08-23T05:18:16.734Z,85.40
2022-08-23T05:20:47.000Z,85.27
2022-08-23T05:23:16.827Z,85.22
2022-08-23T05:25:52.527Z,85.36
2022-08-23T05:28:31.755Z,85.37
2022-08-23T05:31:02.604Z,85.40
2022-08-23T05:33:34.868Z,85.46
2022-08-23T05:36:06.057Z,85.53
2022-08-23T05:38:35.737Z,85.58
2022-08-23T05:41:05.245Z,85.57
2022-08-23T05:43:35.673Z,85.47
2022-08-23T05:46:19.899Z,85.40
2022-08-23T05:48:53.256Z,85.32
2022-08-23T05:51:29.052Z,85.21
2022-08-23T05:54:05.505Z,85.05
2022-08-23T05:56:39.034Z,84.95
2022-08-23T05:59:12.466Z,84.75
2022-08-23T06:01:44.462Z,84.56
2022-08-23T06:04:14.274Z,84.43
2022-08-23T06:06:44.646Z,84.24
2022-08-23T06:09:17.848Z,84.00
2022-08-23T06:11:48.378Z,83.88
2022-08-23T06:14:18.110Z,83.85
2022-08-23T06:16:55.493Z,83.73
2022-08-23T06:19:25.508Z,83.55
2022-08-23T06:21:53.927Z,83.42
2022-08-23T06:24:24.039Z,83.21
2022-08-23T06:26:52.384Z,83.07
2022-08-23T06:29:22.033Z,82.90
2022-08-23T06:31:54.214Z,82.81
2022-08-23T06:34:32.993Z,82.76
2022-08-23T06:37:06.038Z,82.59
2022-08-23T06:39:37.318Z,82.42
2022-08-23T06:42:37.503Z,82.17
2022-08-23T06:45:02.405Z,81.85
2022-08-23T06:47:32.193Z,81.69
2022-08-23T06:50:03.454Z,81.58
2022-08-23T06:52:31.241Z,81.44
2022-08-23T06:55:03.993Z,80.94
2022-08-23T06:57:34.322Z,80.70
2022-08-23T07:00:02.234Z,80.15
2022-08-23T07:02:31.880Z,79.94
2022-08-23T07:05:03.451Z,80.00
2022-08-23T07:07:41.310Z,79.79
2022-08-23T07:10:15.686Z,79.36
2022-08-23T07:12:45.401Z,79.10
2022-08-23T07:15:15.193Z,78.77
2022-08-23T07:17:43.363Z,78.34
2022-08-23T07:20:13.173Z,77.72
2022-08-23T07:22:41.586Z,76.79
2022-08-23T07:25:09.524Z,75.26
2022-08-23T07:27:39.547Z,74.09
2022-08-23T07:30:11.429Z,73.40
2022-08-23T07:32:41.153Z,71.93
2022-08-23T07:35:09.274Z,71.99
2022-08-23T07:37:39.609Z,71.92
2022-08-23T07:40:10.427Z,70.96
2022-08-23T07:42:49.905Z,71.36
2022-08-23T07:45:23.063Z,70.53
2022-08-23T07:47:51.775Z,70.23
2022-08-23T07:50:21.989Z,70.20
2022-08-23T07:52:51.480Z,69.86
2022-08-23T07:55:21.472Z,69.64
2022-08-23T07:57:50.928Z,69.86
2022-08-23T08:00:20.509Z,69.85
2022-08-23T08:02:48.556Z,69.06
2022-08-23T08:05:21.792Z,69.18
2022-08-23T08:07:51.764Z,68.93
2022-08-23T08:10:20.887Z,69.13
2022-08-23T08:12:48.883Z,67.88
2022-08-23T08:15:19.518Z,67.42
2022-08-23T08:17:50.335Z,67.70
2022-08-23T08:20:21.804Z,67.06
2022-08-23T08:22:51.191Z,66.13
2022-08-23T08:25:29.271Z,65.05
2022-08-23T08:27:59.939Z,62.53
2022-08-23T08:30:28.487Z,61.71
2022-08-23T08:32:58.738Z,61.49
2022-08-23T08:35:28.828Z,60.93
2022-08-23T08:37:56.702Z,56.87
2022-08-23T08:40:33.942Z,58.48
2022-08-23T08:43:30.494Z,56.58
2022-08-23T08:46:25.961Z,54.02
2022-08-23T08:48:59.983Z,52.69
2022-08-23T08:51:58.312Z,52.09
2022-08-23T08:54:29.827Z,51.49
2022-08-23T08:57:05.863Z,52.48
2022-08-23T08:59:56.106Z,52.31
2022-08-23T09:02:32.718Z,51.51
2022-08-23T09:05:21.139Z,49.87
2022-08-23T09:08:07.115Z,48.76
2022-08-23T09:10:45.729Z,48.48
2022-08-23T09:13:46.540Z,48.72
2022-08-23T09:16:37.537Z,49.96
2022-08-23T09:19:07.458Z,51.11
2022-08-23T09:21:54.558Z,51.50
2022-08-23T09:24:24.363Z,52.74
2022-08-23T09:26:55.688Z,53.31
2022-08-23T09:29:29.265Z,53.33
2022-08-23T09:32:06.511Z,52.93
2022-08-23T09:34:38.540Z,52.68
2022-08-23T09:37:20.567Z,49.84
2022-08-23T09:40:14.192Z,46.78
2022-08-23T09:42:45.847Z,45.01
2022-08-23T09:45:38.125Z,42.93
2022-08-23T09:48:08.012Z,41.05
2022-08-23T09:50:51.201Z,39.59
2022-08-23T09:53:28.181Z,38.50
2022-08-23T09:55:58.917Z,39.54
2022-08-23T09:58:42.793Z,42.70
2022-08-23T10:01:20.444Z,42.91
2022-08-23T10:04:12.873Z,43.48
2022-08-23T10:06:44.641Z,44.15
2022-08-23T10:09:27.845Z,45.14
2022-08-23T10:11:58.680Z,45.92
2022-08-23T10:14:31.255Z,46.74
2022-08-23T10:17:19.702Z,46.61
2022-08-23T10:20:06.216Z,47.12
2022-08-23T10:22:45.369Z,46.41
2022-08-23T10:25:25.282Z,45.93
2022-08-23T10:28:43.032Z,46.76
2022-08-23T10:31:31.702Z,48.16
2022-08-23T10:34:11.815Z,48.00
2022-08-23T10:37:16.966Z,47.55
2022-08-23T10:40:03.666Z,47.77
2022-08-23T10:42:52.509Z,47.08
2022-08-23T10:45:39.321Z,47.90
2022-08-23T10:48:29.736Z,47.94
2022-08-23T10:51:11.668Z,48.34
2022-08-23T10:53:48.605Z,48.21
2022-08-23T10:56:21.090Z,48.51
2022-08-23T10:59:00.293Z,48.58
2022-08-23T11:01:57.301Z,48.75
2022-08-23T11:04:50.154Z,49.16
2022-08-23T11:07:28.420Z,49.13
2022-08-23T11:10:56.029Z,49.14
2022-08-23T11:13:29.845Z,48.41
2022-08-23T11:16:17.101Z,48.63
2022-08-23T11:18:49.720Z,48.78
2022-08-23T11:21:19.270Z,48.84
2022-08-23T11:23:55.619Z,48.79
2022-08-23T11:26:25.178Z,48.98
2022-08-23T11:29:08.090Z,48.28
2022-08-23T11:32:05.668Z,48.31
2022-08-23T11:34:43.939Z,48.49
2022-08-23T11:37:23.475Z,48.69
2022-08-23T11:39:58.704Z,48.76
2022-08-23T11:42:52.801Z,47.92
2022-08-23T11:45:23.636Z,48.19
2022-08-23T11:48:10.242Z,48.63
2022-08-23T11:50:57.779Z,48.59
2022-08-23T11:53:30.681Z,49.09
2022-08-23T11:56:26.720Z,49.53
2022-08-23T11:59:19.343Z,49.64
2022-08-23T12:01:48.178Z,49.60
2022-08-23T12:04:42.606Z,49.64
2022-08-23T12:07:13.629Z,49.87
2022-08-23T12:09:43.603Z,49.94
2022-08-23T12:12:39.440Z,49.69
2022-08-23T12:15:13.785Z,49.80
2022-08-23T12:17:42.118Z,50.74
2022-08-23T12:20:16.899Z,51.60
2022-08-23T12:23:08.160Z,52.17
2022-08-23T12:25:36.387Z,52.03
2022-08-23T12:28:29.977Z,51.16
2022-08-23T12:31:07.710Z,52.54
2022-08-23T12:33:56.814Z,52.89
2022-08-23T12:37:00.315Z,53.33
2022-08-23T12:39:51.171Z,53.84
2022-08-23T12:42:34.784Z,54.51
2022-08-23T12:45:18.102Z,54.45
2022-08-23T12:47:59.667Z,54.76
2022-08-23T12:50:39.515Z,55.08
2022-08-23T12:53:12.409Z,55.81
2022-08-23T12:55:44.803Z,55.95
2022-08-23T12:58:17.571Z,55.75
2022-08-23T13:00:57.672Z,55.40
2022-08-23T13:03:44.617Z,55.81
2022-08-23T13:06:24.571Z,55.71
2022-08-23T13:09:02.184Z,55.82
2022-08-23T13:11:34.200Z,55.69
2022-08-23T13:14:42.148Z,55.59
2022-08-23T13:17:27.455Z,54.85
2022-08-23T13:20:02.097Z,54.70
2022-08-23T13:22:39.180Z,54.08
2022-08-23T13:25:31.162Z,54.46
2022-08-23T13:28:31.442Z,54.58
2022-08-23T13:31:03.052Z,54.64
2022-08-23T13:33:31.318Z,54.48
2022-08-23T13:36:25.819Z,54.38
2022-08-23T13:38:53.689Z,54.40
2022-08-23T13:41:39.099Z,53.88
2022-08-23T13:44:18.375Z,54.04
2022-08-23T13:46:51.987Z,53.60
2022-08-23T13:49:29.185Z,53.53
2022-08-23T13:52:18.397Z,53.46
2022-08-23T13:54:53.090Z,53.72
2022-08-23T13:57:24.289Z,53.72
2022-08-23T13:59:59.148Z,53.74
2022-08-23T14:02:27.013Z,53.61
2022-08-23T14:04:54.910Z,53.81
2022-08-23T14:07:22.927Z,53.84
2022-08-23T14:09:54.865Z,53.72
2022-08-23T14:12:33.706Z,53.53
2022-08-23T14:15:06.722Z,53.53
2022-08-23T14:17:49.012Z,53.52
2022-08-23T14:20:43.289Z,54.07
2022-08-23T14:23:12.399Z,54.12
2022-08-23T14:25:44.665Z,53.77
2022-08-23T14:28:12.871Z,53.96
2022-08-23T14:30:40.845Z,53.70
2022-08-23T14:33:12.346Z,53.87
2022-08-23T14:35:40.419Z,53.78
2022-08-23T14:38:08.125Z,53.62
2022-08-23T14:40:39.471Z,53.74
2022-08-23T14:43:13.728Z,53.90
2022-08-23T14:45:45.362Z,53.71
2022-08-23T14:48:14.793Z,53.45
2022-08-23T14:50:44.395Z,53.71
2022-08-23T14:53:16.652Z,53.57
2022-08-23T14:55:48.640Z,53.77
2022-08-23T14:58:16.792Z,53.88
2022-08-23T15:00:44.977Z,53.92
2022-08-23T15:03:25.001Z,54.25
2022-08-23T15:05:55.689Z,54.55
2022-08-23T15:08:26.414Z,54.56
2022-08-23T15:13:54.727Z,54.67
2022-08-23T15:16:28.622Z,54.99
2022-08-23T15:18:58.266Z,55.35
2022-08-23T15:21:30.200Z,55.43
2022-08-23T15:23:58.496Z,55.41
2022-08-23T15:26:34.637Z,55.29
2022-08-23T15:29:06.885Z,54.95
2022-08-23T15:31:38.438Z,54.65
2022-08-23T15:34:06.460Z,54.86
2022-08-23T15:36:43.885Z,55.07
2022-08-23T15:39:12.094Z,55.02
2022-08-23T15:41:39.971Z,55.28
2022-08-23T15:44:11.551Z,55.52
2022-08-23T15:46:39.798Z,55.75
2022-08-23T15:49:14.583Z,56.27
2022-08-23T15:51:44.819Z,56.56
2022-08-23T15:54:15.099Z,56.67
2022-08-23T15:56:53.328Z,56.88
2022-08-23T15:59:25.659Z,56.75
2022-08-23T16:01:53.606Z,56.81
2022-08-23T16:04:25.158Z,57.10
2022-08-23T16:06:53.158Z,57.34
2022-08-23T16:09:29.064Z,57.62
2022-08-23T16:12:00.149Z,57.77
2022-08-23T16:14:34.273Z,58.13
2022-08-23T16:17:04.878Z,57.92
2022-08-23T16:19:33.847Z,58.15
2022-08-23T16:22:04.526Z,58.07
2022-08-23T16:24:33.913Z,58.07
2022-08-23T16:27:03.220Z,58.38
2022-08-23T16:29:36.529Z,58.43
2022-08-23T16:32:08.232Z,58.54
2022-08-23T16:34:39.557Z,58.66
2022-08-23T16:37:11.667Z,58.97
2022-08-23T16:39:45.129Z,59.22
2022-08-23T16:42:13.057Z,59.59
2022-08-23T16:44:40.837Z,59.67
2022-08-23T16:47:13.459Z,59.63
2022-08-23T16:49:46.736Z,59.94
2022-08-23T16:52:16.027Z,59.85
2022-08-23T16:54:51.980Z,60.18
2022-08-23T16:57:19.605Z,60.76
2022-08-23T16:59:47.330Z,60.82
2022-08-23T17:02:35.209Z,60.83
2022-08-23T17:05:07.432Z,61.18
2022-08-23T17:07:39.898Z,61.69
2022-08-23T17:10:15.051Z,62.12
2022-08-23T17:12:51.521Z,62.16
2022-08-23T17:15:29.228Z,62.53
2022-08-23T17:18:02.139Z,62.84
2022-08-23T17:20:32.552Z,63.20
2022-08-23T17:23:05.659Z,63.16
2022-08-23T17:25:38.730Z,63.59
2022-08-23T17:28:06.665Z,64.04
2022-08-23T17:30:40.138Z,64.42
2022-08-23T17:33:09.720Z,64.75
2022-08-23T17:35:37.545Z,65.05
2022-08-23T17:38:10.400Z,65.13
2022-08-23T17:40:42.553Z,65.50
2022-08-23T17:43:14.429Z,65.61
2022-08-23T17:45:51.130Z,65.54
2022-08-23T17:48:23.505Z,65.72
2022-08-23T17:50:51.247Z,65.85
2022-08-23T17:53:19.015Z,66.13
2022-08-23T17:55:46.926Z,66.46
2022-08-23T17:58:18.430Z,66.63
2022-08-23T18:00:46.586Z,66.87
2022-08-23T18:03:14.447Z,66.66
2022-08-23T18:05:47.680Z,66.31
2022-08-23T18:08:17.298Z,66.32
2022-08-23T18:10:45.984Z,66.47
2022-08-23T18:13:13.823Z,66.76
2022-08-23T18:15:41.580Z,66.84
2022-08-23T18:18:09.967Z,67.24
2022-08-23T18:20:41.213Z,67.54
2022-08-23T18:23:10.021Z,67.84
2022-08-23T18:25:40.251Z,68.11
2022-08-23T18:28:10.066Z,68.25
2022-08-23T18:30:54.683Z,68.39
2022-08-23T18:33:32.285Z,68.63
2022-08-23T18:36:13.814Z,68.82
2022-08-23T18:38:44.948Z,68.84
2022-08-23T18:41:14.349Z,68.89
2022-08-23T18:43:42.838Z,68.93
2022-08-23T18:46:12.331Z,69.00
2022-08-23T18:48:41.024Z,69.03
2022-08-23T18:51:17.641Z,69.05
2022-08-23T18:53:47.621Z,69.06
2022-08-23T18:56:16.209Z,69.21
2022-08-23T18:58:44.742Z,69.32
2022-08-23T19:01:26.500Z,69.48
2022-08-23T19:03:57.444Z,69.73
2022-08-23T19:06:26.294Z,69.95
2022-08-23T19:08:55.760Z,70.14
2022-08-23T19:11:25.794Z,70.19
2022-08-23T19:13:59.343Z,70.35
2022-08-23T19:16:29.872Z,70.56
2022-08-23T19:18:59.025Z,70.59
2022-08-23T19:21:27.281Z,70.64
2022-08-23T19:23:59.216Z,70.84
2022-08-23T19:26:32.096Z,71.14
2022-08-23T19:29:10.911Z,71.41
2022-08-23T19:31:46.746Z,71.73
2022-08-23T19:34:19.582Z,71.76
2022-08-23T19:36:58.068Z,71.80
2022-08-23T19:39:32.125Z,71.98
2022-08-23T19:42:11.056Z,72.09
2022-08-23T19:44:41.464Z,72.41
2022-08-23T19:47:19.457Z,72.56
2022-08-23T19:49:50.842Z,72.71
2022-08-23T19:52:24.141Z,72.91
2022-08-23T19:54:55.506Z,73.09
2022-08-23T19:57:24.045Z,73.59
2022-08-23T19:59:51.936Z,73.70
2022-08-23T20:02:22.367Z,73.81
2022-08-23T20:04:54.608Z,73.95
2022-08-23T20:07:24.633Z,74.09
2022-08-23T20:09:53.278Z,73.99
2022-08-23T20:12:21.564Z,74.11
2022-08-23T20:14:50.065Z,74.11
2022-08-23T20:17:23.268Z,74.17
2022-08-23T20:19:54.498Z,74.31
2022-08-23T20:22:41.205Z,74.36
2022-08-23T20:25:11.834Z,74.44
2022-08-23T20:27:39.920Z,74.42
2022-08-23T20:30:12.992Z,74.56
2022-08-23T20:32:40.748Z,74.62
2022-08-23T20:35:14.790Z,74.66
2022-08-23T20:37:42.753Z,74.55
2022-08-23T20:40:11.060Z,74.59
2022-08-23T20:42:41.755Z,74.75
2022-08-23T20:45:11.212Z,74.87
2022-08-23T20:47:44.406Z,74.74
2022-08-23T20:50:14.664Z,74.80
2022-08-23T20:52:44.477Z,74.79
2022-08-23T20:55:18.076Z,74.85
2022-08-23T20:57:48.363Z,74.92
2022-08-23T21:00:18.953Z,74.93
2022-08-23T21:02:46.720Z,75.08
2022-08-23T21:05:15.892Z,75.11
2022-08-23T21:07:44.991Z,75.21
2022-08-23T21:10:16.105Z,75.39
2022-08-23T21:12:44.320Z,75.63
2022-08-23T21:15:15.458Z,75.62
2022-08-23T21:17:43.701Z,75.86
2022-08-23T21:20:17.059Z,75.92
2022-08-23T21:22:46.662Z,75.93
2022-08-23T21:25:17.394Z,76.18
2022-08-23T21:27:45.160Z,76.27
2022-08-23T21:30:19.322Z,76.52
2022-08-23T21:32:49.334Z,76.54
2022-08-23T21:35:19.493Z,76.44
2022-08-23T21:37:48.596Z,76.57
2022-08-23T21:40:16.439Z,76.60
2022-08-23T21:42:48.277Z,76.69
2022-08-23T21:45:16.360Z,76.84
2022-08-23T21:47:44.979Z,76.95
2022-08-23T21:50:12.883Z,77.06
2022-08-23T21:52:41.193Z,77.23
2022-08-23T21:55:09.570Z,77.35
2022-08-23T21:57:38.361Z,77.44
2022-08-23T22:00:13.985Z,77.52
2022-08-23T22:02:45.360Z,77.64
2022-08-23T22:05:15.773Z,77.74
2022-08-23T22:07:43.821Z,77.77
2022-08-23T22:10:14.599Z,77.72
2022-08-23T22:12:42.446Z,77.67
2022-08-23T22:15:14.307Z,77.60
2022-08-23T22:17:42.503Z,77.60
2022-08-23T22:20:15.145Z,77.54
2022-08-23T22:22:46.636Z,77.54
2022-08-23T22:25:14.686Z,77.53
2022-08-23T22:27:45.649Z,77.56
2022-08-23T22:30:20.216Z,77.61
2022-08-23T22:32:48.206Z,77.70
2022-08-23T22:35:19.586Z,77.71
2022-08-23T22:38:12.399Z,77.74
2022-08-23T22:40:42.435Z,77.86
2022-08-23T22:43:10.443Z,77.85
2022-08-23T22:45:44.956Z,77.87
2022-08-23T22:48:15.808Z,77.99
2022-08-23T22:50:46.822Z,77.97
2022-08-23T22:53:18.244Z,78.02
2022-08-23T22:55:53.166Z,78.08
2022-08-23T22:58:21.296Z,78.14
2022-08-23T23:00:51.535Z,78.15
2022-08-23T23:03:24.147Z,78.26
2022-08-23T23:05:52.339Z,78.36
2022-08-23T23:08:29.278Z,78.44
2022-08-23T23:11:02.532Z,78.66
2022-08-23T23:13:32.121Z,78.64
2022-08-23T23:16:03.508Z,78.79
2022-08-23T23:18:31.346Z,79.00
2022-08-23T23:21:03.408Z,79.22
2022-08-23T23:23:33.093Z,79.28
2022-08-23T23:26:03.253Z,79.30
2022-08-23T23:28:31.082Z,79.37
2022-08-23T23:31:02.442Z,79.41
2022-08-23T23:33:30.537Z,79.43
2022-08-23T23:36:02.042Z,79.38
2022-08-23T23:38:31.771Z,79.42
2022-08-23T23:41:01.887Z,79.65
2022-08-23T23:43:32.106Z,79.79
2022-08-23T23:46:06.467Z,79.84
2022-08-23T23:48:36.336Z,79.96
2022-08-23T23:51:11.865Z,80.06
2022-08-23T23:53:43.071Z,80.23
2022-08-23T23:56:15.561Z,80.32
2022-08-23T23:58:47.511Z,80.40
